Terminal Aerodrome Forecast
Issued by NWS Sioux Falls, SD

Home | Current Version | Previous Version | Text Only | Print | Product List | Glossary Off
Versions: 1 2 3 4 5 6 7 8 9 10 11 12 13 14

000
FTUS43 KFSD 241156 AAA
TAFFSD
TAF AMD
KFSD 241156Z 2412/2512 36005KT P6SM BKN004
     FM241300 03006KT P6SM BKN006
     FM241500 04005KT P6SM SCT012
     FM241900 VRB05KT P6SM SCT045
     FM250000 14006KT P6SM FEW150
     FM250600 15010KT P6SM SCT150=

USA.gov is the U.S. government's official web portal to all federal, state and local government web resources and services.